Terminal Aerodrome Forecast
Issued by NWS

Home | Current Version | Previous Version | Text Only | Print | Product List | Glossary On
Versions: 1 2 3 4 5 6 7 8 9 10 11 12 13 14 15 16 17 18 19 20 21 22 23
134
FTUS41 KPBZ 142328
TAFAGC
TAF
KAGC 142328Z 1500/1524 10007KT P6SM OVC150
     FM150700 13008KT 4SM -SN OVC025
     FM151500 15010KT 3SM -SN OVC010
     FM152100 14009KT 2SM -SN OVC008=

USA.gov is the U.S. government's official web portal to all federal, state and local government web resources and services.